11:51
Airports
History
Links
Donate
Help keep this website running!
PayPal
Bitcoin
This page is community maintained. The information is intended for PC simulator navigation or reference.
Always use approved charts for navigation.
SBVH
VILHENA
VILHENA (SBVH)
Vilhena, Rondônia, Brazil (76980)
(C)
Lat/Lng:12° 41' 39.75" S / 60° 5' 53.77" W
-12.694374 / -60.09827
Elevation:2018'ft / 615mMSL
ID / ICAO:SBVH
Runways:1
Longest:03-21
Asphalt 2,607m / 8,553ft
Controlled:Yes
METAR11:00 GMT 2018-02-20
Altimeter: 29.94
Visibility: 6.2 statute miles
Wind: 4 knots (from 330°)
Temp: 22°c / 72°f
Humidity: 100.0%

METAR: SBVH 201100Z 33004KT 9999 SCT006 BKN070 22/22 Q1014

(Powered by phpweather)
Airport Radio Frequencies
Tower: 125.9
Runway 03 / 21
Dimensions:2607.1 x 29.9m 8553' x 98'ft
Surface:Asphalt
Edge Lights:Low intensity
Runway 03 [A]Runway 21 [B]
Heading:014°TH 194°TH
Lat:
Lng:
12° 42' 20.65"S
60° 6' 4.96"W
12° 40' 58.84"S
60° 5' 42.58"W
User Notes and Comments
12° 41' 39.75" S / 60° 5' 53.77" W
Distance To
Airport ID:
Nearby Airports
4 Fazenda Jaqueline 13.1 NM
SNIZ S 186°
4 Fazenda Espirito Santo 43.4 NM
SNNY SSW 201°
4 Fazenda Taquarussu 44.7 NM
SWXZ SSW 197°
4 Fazenda Maranata 52.3 NM
SIRQ W 263°
4 Fazenda Rancho Novo 53.0 NM
SWUM SSW 192°
4 Fazenda Paredao 65.8 NM
SJAG S 191°
4 Fazenda Juliana 66.8 NM
SJJJ W 270°
VFR Chart
Flight Planning at SkyVector.com